sensor_id;sensor_type;location;lat;lon;timestamp;temperature;humidity
4904;DHT22;2467;48.142;11.616;2023-06-22T00:00:21;23.50;99.90
4904;DHT22;2467;48.142;11.616;2023-06-22T00:00:54;23.50;99.90
4904;DHT22;2467;48.142;11.616;2023-06-22T00:01:27;23.50;99.90
4904;DHT22;2467;48.142;11.616;2023-06-22T00:02:00;23.50;99.90
4904;DHT22;2467;48.142;11.616;2023-06-22T00:02:31;23.50;99.90
4904;DHT22;2467;48.142;11.616;2023-06-22T00:03:03;23.40;99.90
4904;DHT22;2467;48.142;11.616;2023-06-22T00:03:36;23.50;99.90
4904;DHT22;2467;48.142;11.616;2023-06-22T00:04:09;23.40;99.90
4904;DHT22;2467;48.142;11.616;2023-06-22T00:04:42;23.40;99.90
4904;DHT22;2467;48.142;11.616;2023-06-22T00:05:14;23.40;99.90
4904;DHT22;2467;48.142;11.616;2023-06-22T00:05:46;23.40;99.90
4904;DHT22;2467;48.142;11.616;2023-06-22T00:06:18;23.40;99.90
4904;DHT22;2467;48.142;11.616;2023-06-22T00:06:57;23.40;99.90
4904;DHT22;2467;48.142;11.616;2023-06-22T00:07:30;23.40;99.90
4904;DHT22;2467;48.142;11.616;2023-06-22T00:08:04;23.40;99.90
4904;DHT22;2467;48.142;11.616;2023-06-22T00:08:37;23.40;99.90
4904;DHT22;2467;48.142;11.616;2023-06-22T00:09:09;23.40;99.90
4904;DHT22;2467;48.142;11.616;2023-06-22T00:09:42;23.30;99.90
4904;DHT22;2467;48.142;11.616;2023-06-22T00:10:15;23.30;99.90
4904;DHT22;2467;48.142;11.616;2023-06-22T00:10:46;23.30;99.90
4904;DHT22;2467;48.142;11.616;2023-06-22T00:11:18;23.40;99.90
4904;DHT22;2467;48.142;11.616;2023-06-22T00:11:52;23.30;99.90
4904;DHT22;2467;48.142;11.616;2023-06-22T00:12:23;23.40;99.90
4904;DHT22;2467;48.142;11.616;2023-06-22T00:13:02;23.30;99.90
4904;DHT22;2467;48.142;11.616;2023-06-22T00:13:35;23.30;99.90
4904;DHT22;2467;48.142;11.616;2023-06-22T00:14:07;23.30;99.90
4904;DHT22;2467;48.142;11.616;2023-06-22T00:14:39;23.30;99.90
4904;DHT22;2467;48.142;11.616;2023-06-22T00:15:11;23.30;99.90
4904;DHT22;2467;48.142;11.616;2023-06-22T00:15:44;23.30;99.90
4904;DHT22;2467;48.142;11.616;2023-06-22T00:16:16;23.30;99.90
4904;DHT22;2467;48.142;11.616;2023-06-22T00:16:49;23.30;99.90
4904;DHT22;2467;48.142;11.616;2023-06-22T00:17:21;23.30;99.90
4904;DHT22;2467;48.142;11.616;2023-06-22T00:17:53;23.30;99.90
4904;DHT22;2467;48.142;11.616;2023-06-22T00:18:26;23.30;99.90
4904;DHT22;2467;48.142;11.616;2023-06-22T00:19:00;23.40;99.90
4904;DHT22;2467;48.142;11.616;2023-06-22T00:19:33;23.30;99.90
4904;DHT22;2467;48.142;11.616;2023-06-22T00:20:08;23.40;99.90
4904;DHT22;2467;48.142;11.616;2023-06-22T00:20:42;23.40;99.90
4904;DHT22;2467;48.142;11.616;2023-06-22T00:21:14;23.30;99.90
4904;DHT22;2467;48.142;11.616;2023-06-22T00:21:47;23.30;99.90
4904;DHT22;2467;48.142;11.616;2023-06-22T00:22:19;23.30;99.90
4904;DHT22;2467;48.142;11.616;2023-06-22T00:23:00;23.30;99.90
4904;DHT22;2467;48.142;11.616;2023-06-22T00:23:33;23.20;99.90
4904;DHT22;2467;48.142;11.616;2023-06-22T00:24:06;23.20;99.90
4904;DHT22;2467;48.142;11.616;2023-06-22T00:24:39;23.20;99.90
4904;DHT22;2467;48.142;11.616;2023-06-22T00:25:11;23.20;99.90
4904;DHT22;2467;48.142;11.616;2023-06-22T00:25:43;23.20;99.90
4904;DHT22;2467;48.142;11.616;2023-06-22T00:26:16;23.20;99.90
4904;DHT22;2467;48.142;11.616;2023-06-22T00:26:48;23.20;99.90
4904;DHT22;2467;48.142;11.616;2023-06-22T00:27:20;23.20;99.90
4904;DHT22;2467;48.142;11.616;2023-06-22T00:27:53;23.20;99.90
4904;DHT22;2467;48.142;11.616;2023-06-22T00:28:25;23.20;99.90
4904;DHT22;2467;48.142;11.616;2023-06-22T00:28:57;23.20;99.90
4904;DHT22;2467;48.142;11.616;2023-06-22T00:29:29;23.20;99.90
4904;DHT22;2467;48.142;11.616;2023-06-22T00:30:02;23.30;99.90
4904;DHT22;2467;48.142;11.616;2023-06-22T00:30:35;23.30;99.90
4904;DHT22;2467;48.142;11.616;2023-06-22T00:31:07;23.30;99.90
4904;DHT22;2467;48.142;11.616;2023-06-22T00:31:40;23.30;99.90
4904;DHT22;2467;48.142;11.616;2023-06-22T00:32:12;23.20;99.90
4904;DHT22;2467;48.142;11.616;2023-06-22T00:32:45;23.30;99.90
4904;DHT22;2467;48.142;11.616;2023-06-22T00:33:18;23.30;99.90
4904;DHT22;2467;48.142;11.616;2023-06-22T00:33:50;23.30;99.90
4904;DHT22;2467;48.142;11.616;2023-06-22T00:34:22;23.30;99.90
4904;DHT22;2467;48.142;11.616;2023-06-22T00:34:55;23.30;99.90
4904;DHT22;2467;48.142;11.616;2023-06-22T00:35:27;23.30;99.90
4904;DHT22;2467;48.142;11.616;2023-06-22T00:36:00;23.20;99.90
4904;DHT22;2467;48.142;11.616;2023-06-22T00:36:34;23.20;99.90
4904;DHT22;2467;48.142;11.616;2023-06-22T00:37:06;23.20;99.90
4904;DHT22;2467;48.142;11.616;2023-06-22T00:37:38;23.20;99.90
4904;DHT22;2467;48.142;11.616;2023-06-22T00:38:15;23.20;99.90
4904;DHT22;2467;48.142;11.616;2023-06-22T00:38:46;23.30;99.90
4904;DHT22;2467;48.142;11.616;2023-06-22T00:39:19;23.20;99.90
4904;DHT22;2467;48.142;11.616;2023-06-22T00:39:52;23.30;99.90
4904;DHT22;2467;48.142;11.616;2023-06-22T00:40:24;23.20;99.90
4904;DHT22;2467;48.142;11.616;2023-06-22T00:40:56;23.20;99.90
4904;DHT22;2467;48.142;11.616;2023-06-22T00:41:28;23.30;99.90
4904;DHT22;2467;48.142;11.616;2023-06-22T00:42:00;23.20;99.90
4904;DHT22;2467;48.142;11.616;2023-06-22T00:42:32;23.30;99.90
4904;DHT22;2467;48.142;11.616;2023-06-22T00:43:05;23.20;99.90
4904;DHT22;2467;48.142;11.616;2023-06-22T00:43:38;23.20;99.90
4904;DHT22;2467;48.142;11.616;2023-06-22T00:44:09;23.20;99.90
4904;DHT22;2467;48.142;11.616;2023-06-22T00:44:42;23.20;99.90
4904;DHT22;2467;48.142;11.616;2023-06-22T00:45:15;23.20;99.90
4904;DHT22;2467;48.142;11.616;2023-06-22T00:45:47;23.20;99.90
4904;DHT22;2467;48.142;11.616;2023-06-22T00:46:20;23.20;99.90
4904;DHT22;2467;48.142;11.616;2023-06-22T00:46:53;23.20;99.90
4904;DHT22;2467;48.142;11.616;2023-06-22T00:47:25;23.20;99.90
4904;DHT22;2467;48.142;11.616;2023-06-22T00:48:00;23.20;99.90
4904;DHT22;2467;48.142;11.616;2023-06-22T00:48:32;23.20;99.90
4904;DHT22;2467;48.142;11.616;2023-06-22T00:49:04;23.20;99.90
4904;DHT22;2467;48.142;11.616;2023-06-22T00:49:38;23.20;99.90
4904;DHT22;2467;48.142;11.616;2023-06-22T00:50:18;23.20;99.90
4904;DHT22;2467;48.142;11.616;2023-06-22T00:50:50;23.20;99.90
4904;DHT22;2467;48.142;11.616;2023-06-22T00:51:25;23.20;99.90
4904;DHT22;2467;48.142;11.616;2023-06-22T00:51:58;23.20;99.90
4904;DHT22;2467;48.142;11.616;2023-06-22T00:52:30;23.20;99.90
4904;DHT22;2467;48.142;11.616;2023-06-22T00:53:06;23.20;99.90
4904;DHT22;2467;48.142;11.616;2023-06-22T00:53:43;23.20;99.90
4904;DHT22;2467;48.142;11.616;2023-06-22T00:54:15;23.20;99.90
4904;DHT22;2467;48.142;11.616;2023-06-22T00:54:47;23.20;99.90
4904;DHT22;2467;48.142;11.616;2023-06-22T00:55:20;23.20;99.90
4904;DHT22;2467;48.142;11.616;2023-06-22T00:55:54;23.20;99.90
4904;DHT22;2467;48.142;11.616;2023-06-22T00:56:27;23.20;99.90
4904;DHT22;2467;48.142;11.616;2023-06-22T00:57:02;23.20;99.90
4904;DHT22;2467;48.142;11.616;2023-06-22T00:57:35;23.20;99.90
4904;DHT22;2467;48.142;11.616;2023-06-22T00:58:09;23.20;99.90
4904;DHT22;2467;48.142;11.616;2023-06-22T00:58:42;23.20;99.90
4904;DHT22;2467;48.142;11.616;2023-06-22T00:59:15;23.20;99.90
4904;DHT22;2467;48.142;11.616;2023-06-22T00:59:49;23.20;99.90
4904;DHT22;2467;48.142;11.616;2023-06-22T01:00:21;23.20;99.90
4904;DHT22;2467;48.142;11.616;2023-06-22T01:00:56;23.20;99.90
4904;DHT22;2467;48.142;11.616;2023-06-22T01:01:28;23.20;99.90
4904;DHT22;2467;48.142;11.616;2023-06-22T01:02:02;23.20;99.90
4904;DHT22;2467;48.142;11.616;2023-06-22T01:02:34;23.20;99.90
4904;DHT22;2467;48.142;11.616;2023-06-22T01:03:09;23.20;99.90
4904;DHT22;2467;48.142;11.616;2023-06-22T01:03:42;23.20;99.90
4904;DHT22;2467;48.142;11.616;2023-06-22T01:04:15;23.30;99.90
4904;DHT22;2467;48.142;11.616;2023-06-22T01:04:47;23.20;99.90
4904;DHT22;2467;48.142;11.616;2023-06-22T01:05:21;23.20;99.90
4904;DHT22;2467;48.142;11.616;2023-06-22T01:06:08;23.20;99.90
4904;DHT22;2467;48.142;11.616;2023-06-22T01:06:50;23.20;99.90
4904;DHT22;2467;48.142;11.616;2023-06-22T01:07:28;23.20;99.90
4904;DHT22;2467;48.142;11.616;2023-06-22T01:08:12;23.20;99.90
4904;DHT22;2467;48.142;11.616;2023-06-22T01:08:53;23.20;99.90
4904;DHT22;2467;48.142;11.616;2023-06-22T01:09:32;23.20;99.90
4904;DHT22;2467;48.142;11.616;2023-06-22T01:10:10;23.20;99.90
4904;DHT22;2467;48.142;11.616;2023-06-22T01:10:50;23.20;99.90
4904;DHT22;2467;48.142;11.616;2023-06-22T01:11:28;23.20;99.90
4904;DHT22;2467;48.142;11.616;2023-06-22T01:12:06;23.20;99.90
4904;DHT22;2467;48.142;11.616;2023-06-22T01:12:44;23.20;99.90
4904;DHT22;2467;48.142;11.616;2023-06-22T01:13:24;23.20;99.90
4904;DHT22;2467;48.142;11.616;2023-06-22T01:14:02;23.20;99.90
4904;DHT22;2467;48.142;11.616;2023-06-22T01:14:39;23.20;99.90
4904;DHT22;2467;48.142;11.616;2023-06-22T01:15:16;23.20;99.90
4904;DHT22;2467;48.142;11.616;2023-06-22T01:15:55;23.20;99.90
4904;DHT22;2467;48.142;11.616;2023-06-22T01:16:30;23.20;99.90
4904;DHT22;2467;48.142;11.616;2023-06-22T01:17:05;23.20;99.90
4904;DHT22;2467;48.142;11.616;2023-06-22T01:17:41;23.20;99.90
4904;DHT22;2467;48.142;11.616;2023-06-22T01:18:14;23.20;99.90
4904;DHT22;2467;48.142;11.616;2023-06-22T01:18:52;23.20;99.90
4904;DHT22;2467;48.142;11.616;2023-06-22T01:19:35;23.20;99.90
4904;DHT22;2467;48.142;11.616;2023-06-22T01:20:11;23.20;99.90
4904;DHT22;2467;48.142;11.616;2023-06-22T01:20:44;23.20;99.90
4904;DHT22;2467;48.142;11.616;2023-06-22T01:21:20;23.10;99.90
4904;DHT22;2467;48.142;11.616;2023-06-22T01:21:55;23.10;99.90
4904;DHT22;2467;48.142;11.616;2023-06-22T01:22:30;23.10;99.90
4904;DHT22;2467;48.142;11.616;2023-06-22T01:23:10;23.10;99.90
4904;DHT22;2467;48.142;11.616;2023-06-22T01:24:06;23.10;99.90
4904;DHT22;2467;48.142;11.616;2023-06-22T01:24:51;23.10;99.90
4904;DHT22;2467;48.142;11.616;2023-06-22T01:25:33;23.10;99.90
4904;DHT22;2467;48.142;11.616;2023-06-22T01:26:15;23.00;99.90
4904;DHT22;2467;48.142;11.616;2023-06-22T01:26:57;23.00;99.90
4904;DHT22;2467;48.142;11.616;2023-06-22T01:27:44;23.00;99.90
4904;DHT22;2467;48.142;11.616;2023-06-22T01:28:45;23.00;99.90
4904;DHT22;2467;48.142;11.616;2023-06-22T01:29:19;22.90;99.90
4904;DHT22;2467;48.142;11.616;2023-06-22T01:29:56;22.90;99.90
4904;DHT22;2467;48.142;11.616;2023-06-22T01:30:33;22.90;99.90
4904;DHT22;2467;48.142;11.616;2023-06-22T01:31:07;22.90;99.90
4904;DHT22;2467;48.142;11.616;2023-06-22T01:31:41;22.90;99.90
4904;DHT22;2467;48.142;11.616;2023-06-22T01:32:15;22.90;99.90
4904;DHT22;2467;48.142;11.616;2023-06-22T01:32:49;22.90;99.90
4904;DHT22;2467;48.142;11.616;2023-06-22T01:33:22;22.90;99.90
4904;DHT22;2467;48.142;11.616;2023-06-22T01:33:57;22.90;99.90
4904;DHT22;2467;48.142;11.616;2023-06-22T01:34:31;22.90;99.90
4904;DHT22;2467;48.142;11.616;2023-06-22T01:35:05;22.90;99.90
4904;DHT22;2467;48.142;11.616;2023-06-22T01:35:38;23.00;99.90
4904;DHT22;2467;48.142;11.616;2023-06-22T01:36:12;22.90;99.90
4904;DHT22;2467;48.142;11.616;2023-06-22T01:36:44;23.00;99.90
4904;DHT22;2467;48.142;11.616;2023-06-22T01:37:17;23.00;99.90
4904;DHT22;2467;48.142;11.616;2023-06-22T01:37:50;22.90;99.90
4904;DHT22;2467;48.142;11.616;2023-06-22T01:38:22;23.00;99.90
4904;DHT22;2467;48.142;11.616;2023-06-22T01:38:55;22.90;99.90
4904;DHT22;2467;48.142;11.616;2023-06-22T01:39:29;23.00;99.90
4904;DHT22;2467;48.142;11.616;2023-06-22T01:40:02;22.90;99.90
4904;DHT22;2467;48.142;11.616;2023-06-22T01:40:36;23.00;99.90
4904;DHT22;2467;48.142;11.616;2023-06-22T01:41:10;23.00;99.90
4904;DHT22;2467;48.142;11.616;2023-06-22T01:41:42;23.00;99.90
4904;DHT22;2467;48.142;11.616;2023-06-22T01:42:15;23.00;99.90
4904;DHT22;2467;48.142;11.616;2023-06-22T01:42:48;23.00;99.90
4904;DHT22;2467;48.142;11.616;2023-06-22T01:43:21;23.00;99.90
4904;DHT22;2467;48.142;11.616;2023-06-22T01:43:56;22.90;99.90
4904;DHT22;2467;48.142;11.616;2023-06-22T01:44:29;23.00;99.90
4904;DHT22;2467;48.142;11.616;2023-06-22T01:45:02;22.90;99.90
4904;DHT22;2467;48.142;11.616;2023-06-22T01:45:34;22.90;99.90
4904;DHT22;2467;48.142;11.616;2023-06-22T01:46:07;22.90;99.90
4904;DHT22;2467;48.142;11.616;2023-06-22T01:46:39;22.90;99.90
4904;DHT22;2467;48.142;11.616;2023-06-22T01:47:12;22.90;99.90
4904;DHT22;2467;48.142;11.616;2023-06-22T01:47:46;22.90;99.90
4904;DHT22;2467;48.142;11.616;2023-06-22T01:48:18;22.90;99.90
4904;DHT22;2467;48.142;11.616;2023-06-22T01:48:51;22.90;99.90
4904;DHT22;2467;48.142;11.616;2023-06-22T01:49:24;22.90;99.90
4904;DHT22;2467;48.142;11.616;2023-06-22T01:49:56;22.90;99.90
4904;DHT22;2467;48.142;11.616;2023-06-22T01:50:28;22.90;99.90
4904;DHT22;2467;48.142;11.616;2023-06-22T01:51:02;22.90;99.90
4904;DHT22;2467;48.142;11.616;2023-06-22T01:51:34;22.90;99.90
4904;DHT22;2467;48.142;11.616;2023-06-22T01:52:06;22.90;99.90
4904;DHT22;2467;48.142;11.616;2023-06-22T01:52:39;22.90;99.90
4904;DHT22;2467;48.142;11.616;2023-06-22T01:53:11;22.90;99.90
4904;DHT22;2467;48.142;11.616;2023-06-22T01:53:43;22.90;99.90
4904;DHT22;2467;48.142;11.616;2023-06-22T01:54:14;22.90;99.90
4904;DHT22;2467;48.142;11.616;2023-06-22T01:54:47;22.90;99.90
4904;DHT22;2467;48.142;11.616;2023-06-22T01:55:19;22.90;99.90
4904;DHT22;2467;48.142;11.616;2023-06-22T01:55:51;22.90;99.90
4904;DHT22;2467;48.142;11.616;2023-06-22T01:56:26;22.90;99.90
4904;DHT22;2467;48.142;11.616;2023-06-22T01:56:58;23.00;99.90
4904;DHT22;2467;48.142;11.616;2023-06-22T01:57:30;23.00;99.90
4904;DHT22;2467;48.142;11.616;2023-06-22T01:58:03;22.90;99.90
4904;DHT22;2467;48.142;11.616;2023-06-22T01:58:37;22.90;99.90
4904;DHT22;2467;48.142;11.616;2023-06-22T01:59:19;22.90;99.90
4904;DHT22;2467;48.142;11.616;2023-06-22T02:00:00;22.90;99.90
4904;DHT22;2467;48.142;11.616;2023-06-22T02:00:35;22.90;99.90
4904;DHT22;2467;48.142;11.616;2023-06-22T02:01:10;22.90;99.90
4904;DHT22;2467;48.142;11.616;2023-06-22T02:01:49;22.90;99.90
4904;DHT22;2467;48.142;11.616;2023-06-22T02:02:24;22.90;99.90
4904;DHT22;2467;48.142;11.616;2023-06-22T02:03:05;22.90;99.90
4904;DHT22;2467;48.142;11.616;2023-06-22T02:03:45;22.90;99.90
4904;DHT22;2467;48.142;11.616;2023-06-22T02:04:21;22.90;99.90
4904;DHT22;2467;48.142;11.616;2023-06-22T02:04:58;22.90;99.90
4904;DHT22;2467;48.142;11.616;2023-06-22T02:05:34;22.80;99.90
4904;DHT22;2467;48.142;11.616;2023-06-22T02:06:15;22.90;99.90
4904;DHT22;2467;48.142;11.616;2023-06-22T02:06:52;22.80;99.90
4904;DHT22;2467;48.142;11.616;2023-06-22T02:07:30;22.80;99.90
4904;DHT22;2467;48.142;11.616;2023-06-22T02:08:08;22.80;99.90
4904;DHT22;2467;48.142;11.616;2023-06-22T02:08:45;22.80;99.90
4904;DHT22;2467;48.142;11.616;2023-06-22T02:09:20;22.80;99.90
4904;DHT22;2467;48.142;11.616;2023-06-22T02:09:55;22.80;99.90
4904;DHT22;2467;48.142;11.616;2023-06-22T02:10:28;22.80;99.90
4904;DHT22;2467;48.142;11.616;2023-06-22T02:11:02;22.80;99.90
4904;DHT22;2467;48.142;11.616;2023-06-22T02:11:37;22.80;99.90
4904;DHT22;2467;48.142;11.616;2023-06-22T02:12:11;22.80;99.90
4904;DHT22;2467;48.142;11.616;2023-06-22T02:12:44;22.80;99.90
4904;DHT22;2467;48.142;11.616;2023-06-22T02:13:18;22.80;99.90
4904;DHT22;2467;48.142;11.616;2023-06-22T02:13:51;22.80;99.90
4904;DHT22;2467;48.142;11.616;2023-06-22T02:14:25;22.80;99.90
4904;DHT22;2467;48.142;11.616;2023-06-22T02:14:58;22.80;99.90
4904;DHT22;2467;48.142;11.616;2023-06-22T02:15:32;22.80;99.90
4904;DHT22;2467;48.142;11.616;2023-06-22T02:16:04;22.80;99.90
4904;DHT22;2467;48.142;11.616;2023-06-22T02:16:40;22.70;99.90
4904;DHT22;2467;48.142;11.616;2023-06-22T02:17:12;22.70;99.90
4904;DHT22;2467;48.142;11.616;2023-06-22T02:17:45;22.70;99.90
4904;DHT22;2467;48.142;11.616;2023-06-22T02:18:18;22.70;99.90
4904;DHT22;2467;48.142;11.616;2023-06-22T02:18:57;22.70;99.90
4904;DHT22;2467;48.142;11.616;2023-06-22T02:19:36;22.70;99.90
4904;DHT22;2467;48.142;11.616;2023-06-22T02:20:12;22.70;99.90
4904;DHT22;2467;48.142;11.616;2023-06-22T02:20:45;22.70;99.90
4904;DHT22;2467;48.142;11.616;2023-06-22T02:21:17;22.70;99.90
4904;DHT22;2467;48.142;11.616;2023-06-22T02:21:50;22.60;99.90
4904;DHT22;2467;48.142;11.616;2023-06-22T02:22:22;22.70;99.90
4904;DHT22;2467;48.142;11.616;2023-06-22T02:22:55;22.60;99.90
4904;DHT22;2467;48.142;11.616;2023-06-22T02:23:28;22.60;99.90
4904;DHT22;2467;48.142;11.616;2023-06-22T02:24:00;22.60;99.90
4904;DHT22;2467;48.142;11.616;2023-06-22T02:24:32;22.70;99.90
4904;DHT22;2467;48.142;11.616;2023-06-22T02:25:05;22.60;99.90
4904;DHT22;2467;48.142;11.616;2023-06-22T02:25:37;22.70;99.90
4904;DHT22;2467;48.142;11.616;2023-06-22T02:26:10;22.60;99.90
4904;DHT22;2467;48.142;11.616;2023-06-22T02:26:43;22.60;99.90
4904;DHT22;2467;48.142;11.616;2023-06-22T02:27:17;22.60;99.90
4904;DHT22;2467;48.142;11.616;2023-06-22T02:27:48;22.60;99.90
4904;DHT22;2467;48.142;11.616;2023-06-22T02:28:20;22.60;99.90
4904;DHT22;2467;48.142;11.616;2023-06-22T02:28:53;22.70;99.90
4904;DHT22;2467;48.142;11.616;2023-06-22T02:29:27;22.60;99.90
4904;DHT22;2467;48.142;11.616;2023-06-22T02:30:01;22.60;99.90
4904;DHT22;2467;48.142;11.616;2023-06-22T02:30:35;22.60;99.90
4904;DHT22;2467;48.142;11.616;2023-06-22T02:31:09;22.60;99.90
4904;DHT22;2467;48.142;11.616;2023-06-22T02:31:48;22.60;99.90
4904;DHT22;2467;48.142;11.616;2023-06-22T02:32:21;22.60;99.90
4904;DHT22;2467;48.142;11.616;2023-06-22T02:32:53;22.50;99.90
4904;DHT22;2467;48.142;11.616;2023-06-22T02:33:30;22.60;99.90
4904;DHT22;2467;48.142;11.616;2023-06-22T02:34:03;22.50;99.90
4904;DHT22;2467;48.142;11.616;2023-06-22T02:34:35;22.50;99.90
4904;DHT22;2467;48.142;11.616;2023-06-22T02:35:08;22.50;99.90
4904;DHT22;2467;48.142;11.616;2023-06-22T02:35:41;22.50;99.90
4904;DHT22;2467;48.142;11.616;2023-06-22T02:36:17;22.50;99.90
4904;DHT22;2467;48.142;11.616;2023-06-22T02:36:56;22.50;99.90
4904;DHT22;2467;48.142;11.616;2023-06-22T02:37:35;22.50;99.90
4904;DHT22;2467;48.142;11.616;2023-06-22T02:38:07;22.40;99.90
4904;DHT22;2467;48.142;11.616;2023-06-22T02:38:41;22.40;99.90
4904;DHT22;2467;48.142;11.616;2023-06-22T02:39:20;22.40;99.90
4904;DHT22;2467;48.142;11.616;2023-06-22T02:39:53;22.30;99.90
4904;DHT22;2467;48.142;11.616;2023-06-22T02:40:26;22.30;99.90
4904;DHT22;2467;48.142;11.616;2023-06-22T02:40:59;22.30;99.90
4904;DHT22;2467;48.142;11.616;2023-06-22T02:41:30;22.30;99.90
4904;DHT22;2467;48.142;11.616;2023-06-22T02:42:04;22.30;99.90
4904;DHT22;2467;48.142;11.616;2023-06-22T02:42:36;22.30;99.90
4904;DHT22;2467;48.142;11.616;2023-06-22T02:43:08;22.30;99.90
4904;DHT22;2467;48.142;11.616;2023-06-22T02:43:41;22.30;99.90
4904;DHT22;2467;48.142;11.616;2023-06-22T02:44:13;22.30;99.90
4904;DHT22;2467;48.142;11.616;2023-06-22T02:45:05;22.30;99.90
4904;DHT22;2467;48.142;11.616;2023-06-22T02:45:38;22.20;99.90
4904;DHT22;2467;48.142;11.616;2023-06-22T02:46:10;22.20;99.90
4904;DHT22;2467;48.142;11.616;2023-06-22T02:46:42;22.20;99.90
4904;DHT22;2467;48.142;11.616;2023-06-22T02:47:15;22.20;99.90
4904;DHT22;2467;48.142;11.616;2023-06-22T02:47:48;22.20;99.90
4904;DHT22;2467;48.142;11.616;2023-06-22T02:48:20;22.20;99.90
4904;DHT22;2467;48.142;11.616;2023-06-22T02:48:53;22.10;99.90
4904;DHT22;2467;48.142;11.616;2023-06-22T02:49:25;22.10;99.90
4904;DHT22;2467;48.142;11.616;2023-06-22T02:49:57;22.10;99.90
4904;DHT22;2467;48.142;11.616;2023-06-22T02:50:29;22.10;99.90
4904;DHT22;2467;48.142;11.616;2023-06-22T02:51:02;22.10;99.90
4904;DHT22;2467;48.142;11.616;2023-06-22T02:51:34;22.10;99.90
4904;DHT22;2467;48.142;11.616;2023-06-22T02:52:07;22.10;99.90
4904;DHT22;2467;48.142;11.616;2023-06-22T02:52:39;22.00;99.90
4904;DHT22;2467;48.142;11.616;2023-06-22T02:53:12;22.00;99.90
4904;DHT22;2467;48.142;11.616;2023-06-22T02:53:44;22.00;99.90
4904;DHT22;2467;48.142;11.616;2023-06-22T02:54:16;22.00;99.90
4904;DHT22;2467;48.142;11.616;2023-06-22T02:54:49;22.00;99.90
4904;DHT22;2467;48.142;11.616;2023-06-22T02:55:21;22.00;99.90
4904;DHT22;2467;48.142;11.616;2023-06-22T02:55:55;21.90;99.90
4904;DHT22;2467;48.142;11.616;2023-06-22T02:56:28;21.90;99.90
4904;DHT22;2467;48.142;11.616;2023-06-22T02:57:02;21.90;99.90
4904;DHT22;2467;48.142;11.616;2023-06-22T02:57:34;21.90;99.90
4904;DHT22;2467;48.142;11.616;2023-06-22T02:58:06;21.90;99.90
4904;DHT22;2467;48.142;11.616;2023-06-22T02:58:39;21.90;99.90
4904;DHT22;2467;48.142;11.616;2023-06-22T02:59:11;21.90;99.90
4904;DHT22;2467;48.142;11.616;2023-06-22T02:59:43;21.90;99.90
4904;DHT22;2467;48.142;11.616;2023-06-22T03:00:18;21.90;99.90
4904;DHT22;2467;48.142;11.616;2023-06-22T03:00:51;21.80;99.90
4904;DHT22;2467;48.142;11.616;2023-06-22T03:01:24;21.80;99.90
4904;DHT22;2467;48.142;11.616;2023-06-22T03:01:59;21.80;99.90
4904;DHT22;2467;48.142;11.616;2023-06-22T03:02:32;21.80;99.90
4904;DHT22;2467;48.142;11.616;2023-06-22T03:03:04;21.80;99.90
4904;DHT22;2467;48.142;11.616;2023-06-22T03:03:37;21.80;99.90
4904;DHT22;2467;48.142;11.616;2023-06-22T03:04:09;21.80;99.90
4904;DHT22;2467;48.142;11.616;2023-06-22T03:04:41;21.80;99.90
4904;DHT22;2467;48.142;11.616;2023-06-22T03:05:15;21.80;99.90
4904;DHT22;2467;48.142;11.616;2023-06-22T03:05:49;21.80;99.90
4904;DHT22;2467;48.142;11.616;2023-06-22T03:06:24;21.80;99.90
4904;DHT22;2467;48.142;11.616;2023-06-22T03:07:00;21.80;99.90
4904;DHT22;2467;48.142;11.616;2023-06-22T03:07:33;21.80;99.90
4904;DHT22;2467;48.142;11.616;2023-06-22T03:08:04;21.80;99.90
4904;DHT22;2467;48.142;11.616;2023-06-22T03:08:37;21.80;99.90
4904;DHT22;2467;48.142;11.616;2023-06-22T03:09:09;21.80;99.90
4904;DHT22;2467;48.142;11.616;2023-06-22T03:09:42;21.80;99.90
4904;DHT22;2467;48.142;11.616;2023-06-22T03:10:15;21.80;99.90
4904;DHT22;2467;48.142;11.616;2023-06-22T03:10:47;21.80;99.90
4904;DHT22;2467;48.142;11.616;2023-06-22T03:11:19;21.80;99.90
4904;DHT22;2467;48.142;11.616;2023-06-22T03:11:52;21.80;99.90
4904;DHT22;2467;48.142;11.616;2023-06-22T03:12:24;21.80;99.90
4904;DHT22;2467;48.142;11.616;2023-06-22T03:12:56;21.80;99.90
4904;DHT22;2467;48.142;11.616;2023-06-22T03:13:28;21.80;99.90
4904;DHT22;2467;48.142;11.616;2023-06-22T03:14:01;21.80;99.90
4904;DHT22;2467;48.142;11.616;2023-06-22T03:14:33;21.80;99.90
4904;DHT22;2467;48.142;11.616;2023-06-22T03:15:06;21.80;99.90
4904;DHT22;2467;48.142;11.616;2023-06-22T03:15:40;21.80;99.90
4904;DHT22;2467;48.142;11.616;2023-06-22T03:16:12;21.80;99.90
4904;DHT22;2467;48.142;11.616;2023-06-22T03:16:45;21.70;99.90
4904;DHT22;2467;48.142;11.616;2023-06-22T03:17:17;21.80;99.90
4904;DHT22;2467;48.142;11.616;2023-06-22T03:17:51;21.70;99.90
4904;DHT22;2467;48.142;11.616;2023-06-22T03:18:23;21.80;99.90
4904;DHT22;2467;48.142;11.616;2023-06-22T03:18:54;21.80;99.90
4904;DHT22;2467;48.142;11.616;2023-06-22T03:19:27;21.80;99.90
4904;DHT22;2467;48.142;11.616;2023-06-22T03:20:01;21.80;99.90
4904;DHT22;2467;48.142;11.616;2023-06-22T03:20:33;21.80;99.90
4904;DHT22;2467;48.142;11.616;2023-06-22T03:21:05;21.80;99.90
4904;DHT22;2467;48.142;11.616;2023-06-22T03:21:38;21.70;99.90
4904;DHT22;2467;48.142;11.616;2023-06-22T03:22:10;21.70;99.90
4904;DHT22;2467;48.142;11.616;2023-06-22T03:22:45;21.80;99.90
4904;DHT22;2467;48.142;11.616;2023-06-22T03:23:17;21.70;99.90
4904;DHT22;2467;48.142;11.616;2023-06-22T03:23:49;21.70;99.90
4904;DHT22;2467;48.142;11.616;2023-06-22T03:24:22;21.70;99.90
4904;DHT22;2467;48.142;11.616;2023-06-22T03:24:53;21.70;99.90
4904;DHT22;2467;48.142;11.616;2023-06-22T03:25:25;21.70;99.90
4904;DHT22;2467;48.142;11.616;2023-06-22T03:25:58;21.70;99.90
4904;DHT22;2467;48.142;11.616;2023-06-22T03:26:30;21.70;99.90
4904;DHT22;2467;48.142;11.616;2023-06-22T03:27:02;21.70;99.90
4904;DHT22;2467;48.142;11.616;2023-06-22T03:27:36;21.70;99.90
4904;DHT22;2467;48.142;11.616;2023-06-22T03:28:08;21.70;99.90
4904;DHT22;2467;48.142;11.616;2023-06-22T03:28:41;21.70;99.90
4904;DHT22;2467;48.142;11.616;2023-06-22T03:29:13;21.70;99.90
4904;DHT22;2467;48.142;11.616;2023-06-22T03:29:45;21.70;99.90
4904;DHT22;2467;48.142;11.616;2023-06-22T03:30:18;21.70;99.90
4904;DHT22;2467;48.142;11.616;2023-06-22T03:30:51;21.70;99.90
4904;DHT22;2467;48.142;11.616;2023-06-22T03:31:23;21.70;99.90
4904;DHT22;2467;48.142;11.616;2023-06-22T03:31:56;21.70;99.90
4904;DHT22;2467;48.142;11.616;2023-06-22T03:32:28;21.70;99.90
4904;DHT22;2467;48.142;11.616;2023-06-22T03:33:00;21.70;99.90
4904;DHT22;2467;48.142;11.616;2023-06-22T03:33:33;21.70;99.90
4904;DHT22;2467;48.142;11.616;2023-06-22T03:34:05;21.70;99.90
4904;DHT22;2467;48.142;11.616;2023-06-22T03:34:56;21.70;99.90
4904;DHT22;2467;48.142;11.616;2023-06-22T03:35:30;21.70;99.90
4904;DHT22;2467;48.142;11.616;2023-06-22T03:36:02;21.70;99.90
4904;DHT22;2467;48.142;11.616;2023-06-22T03:36:34;21.70;99.90
4904;DHT22;2467;48.142;11.616;2023-06-22T03:37:07;21.80;99.90
4904;DHT22;2467;48.142;11.616;2023-06-22T03:37:39;21.80;99.90
4904;DHT22;2467;48.142;11.616;2023-06-22T03:38:11;21.80;99.90